createdAt,value
2023-03-12T00:02:38.013Z,2.08
2023-03-12T00:05:41.145Z,1.17
2023-03-12T00:08:42.956Z,2.70
2023-03-12T00:11:44.513Z,1.23
2023-03-12T00:14:46.021Z,1.20
2023-03-12T00:17:47.666Z,0.98
2023-03-12T00:20:56.259Z,1.25
2023-03-12T00:23:57.873Z,1.95
2023-03-12T00:26:59.377Z,0.90
2023-03-12T00:30:00.893Z,0.85
2023-03-12T00:33:02.437Z,1.65
2023-03-12T00:36:04.511Z,1.35
2023-03-12T00:39:06.265Z,1.48
2023-03-12T00:42:07.857Z,1.45
2023-03-12T00:45:09.752Z,2.17
2023-03-12T00:48:11.256Z,0.93
2023-03-12T00:51:12.833Z,2.13
2023-03-12T00:54:14.339Z,3.20
2023-03-12T00:57:15.908Z,1.73
2023-03-12T01:00:17.855Z,2.35
2023-03-12T01:03:19.857Z,2.15
2023-03-12T01:06:21.526Z,1.80
2023-03-12T01:09:23.346Z,1.27
2023-03-12T01:12:26.367Z,1.13
2023-03-12T01:15:28.627Z,1.05
2023-03-12T01:18:30.255Z,1.23
2023-03-12T01:21:32.070Z,1.20
2023-03-12T01:24:33.642Z,0.90
2023-03-12T01:27:35.181Z,1.58
2023-03-12T01:30:36.808Z,0.88
2023-03-12T01:33:39.431Z,1.63
2023-03-12T01:36:41.351Z,0.80
2023-03-12T01:39:42.861Z,1.77
2023-03-12T01:42:52.218Z,1.88
2023-03-12T01:46:12.131Z,0.95
2023-03-12T01:49:24.022Z,1.67
2023-03-12T01:52:36.270Z,1.33
2023-03-12T01:55:38.687Z,1.63
2023-03-12T01:58:45.096Z,1.58
2023-03-12T02:01:47.355Z,1.48
2023-03-12T02:04:52.507Z,1.05
2023-03-12T02:07:55.024Z,2.60
2023-03-12T02:10:56.492Z,2.42
2023-03-12T02:13:58.150Z,1.27
2023-03-12T02:17:00.519Z,2.50
2023-03-12T02:20:20.346Z,2.88
2023-03-12T02:23:33.498Z,1.20
2023-03-12T02:26:37.905Z,0.85
2023-03-12T02:29:42.068Z,1.50
2023-03-12T02:32:45.657Z,1.10
2023-03-12T02:35:48.133Z,1.65
2023-03-12T02:38:52.026Z,1.05
2023-03-12T02:41:57.750Z,2.15
2023-03-12T02:45:00.409Z,0.95
2023-03-12T02:48:02.898Z,1.40
2023-03-12T02:51:04.600Z,2.53
2023-03-12T02:54:06.424Z,1.08
2023-03-12T02:57:08.314Z,1.48
2023-03-12T03:00:12.399Z,1.63
2023-03-12T03:03:15.926Z,2.50
2023-03-12T03:06:18.285Z,1.33
2023-03-12T03:09:22.336Z,1.30
2023-03-12T03:12:24.636Z,1.17
2023-03-12T03:15:27.109Z,1.02
2023-03-12T03:18:30.195Z,1.60
2023-03-12T03:21:32.203Z,0.90
2023-03-12T03:24:36.047Z,1.63
2023-03-12T03:27:37.655Z,1.40
2023-03-12T03:30:39.811Z,1.42
2023-03-12T03:33:43.303Z,2.75
2023-03-12T03:36:47.476Z,1.30
2023-03-12T03:39:50.884Z,1.30
2023-03-12T03:42:52.564Z,1.98
2023-03-12T03:45:59.806Z,1.52
2023-03-12T03:49:02.116Z,1.67
2023-03-12T03:52:04.700Z,1.05
2023-03-12T03:55:10.280Z,1.25
2023-03-12T03:58:12.262Z,1.08
2023-03-12T04:01:14.900Z,1.02
2023-03-12T04:04:17.642Z,1.13
2023-03-12T04:07:19.462Z,0.75
2023-03-12T04:10:22.040Z,1.27
2023-03-12T04:13:23.981Z,0.90
2023-03-12T04:16:26.199Z,1.70
2023-03-12T04:19:29.234Z,1.42
2023-03-12T04:22:30.822Z,0.68
2023-03-12T04:25:32.698Z,0.93
2023-03-12T04:28:35.412Z,2.35
2023-03-12T04:31:37.640Z,1.60
2023-03-12T04:34:39.253Z,1.23
2023-03-12T04:37:41.560Z,1.05
2023-03-12T04:40:43.964Z,1.05
2023-03-12T04:43:45.671Z,1.25
2023-03-12T04:46:48.394Z,1.40
2023-03-12T04:49:53.803Z,1.27
2023-03-12T04:52:55.694Z,1.30
2023-03-12T04:55:57.531Z,0.95
2023-03-12T04:58:59.169Z,1.95
2023-03-12T05:02:02.551Z,1.15
2023-03-12T05:05:06.778Z,1.98
2023-03-12T05:08:09.768Z,2.42
2023-03-12T05:11:11.585Z,1.83
2023-03-12T05:14:13.399Z,1.45
2023-03-12T05:17:15.990Z,1.85
2023-03-12T05:20:17.736Z,2.20
2023-03-12T05:23:21.301Z,1.67
2023-03-12T05:26:26.188Z,0.63
2023-03-12T05:29:35.407Z,0.73
2023-03-12T05:32:38.604Z,1.48
2023-03-12T05:35:40.243Z,1.00
2023-03-12T05:38:42.690Z,1.75
2023-03-12T05:41:45.596Z,0.70
2023-03-12T05:44:52.419Z,1.45
2023-03-12T05:47:56.157Z,0.90
2023-03-12T05:50:57.748Z,1.52
2023-03-12T05:53:59.428Z,1.52
2023-03-12T05:57:03.003Z,1.85
2023-03-12T06:00:05.445Z,1.33
2023-03-12T06:03:16.068Z,1.38
2023-03-12T06:06:18.996Z,2.22
2023-03-12T06:09:20.497Z,0.50
2023-03-12T06:12:21.994Z,1.80
2023-03-12T06:15:24.127Z,1.35
2023-03-12T06:18:25.717Z,0.90
2023-03-12T06:21:30.778Z,1.65
2023-03-12T06:24:32.867Z,3.10
2023-03-12T06:27:37.756Z,1.63
2023-03-12T06:30:39.283Z,1.60
2023-03-12T06:33:41.129Z,1.50
2023-03-12T06:36:42.600Z,1.30
2023-03-12T06:39:44.211Z,1.00
2023-03-12T06:42:45.659Z,0.70
2023-03-12T06:45:47.126Z,1.88
2023-03-12T06:48:49.051Z,0.73
2023-03-12T06:51:50.719Z,1.70
2023-03-12T06:54:52.319Z,1.27
2023-03-12T06:57:53.768Z,0.73
2023-03-12T07:00:55.587Z,2.63
2023-03-12T07:03:57.130Z,1.88
2023-03-12T07:06:58.625Z,2.90
2023-03-12T07:10:00.098Z,1.38
2023-03-12T07:13:01.769Z,1.60
2023-03-12T07:16:04.060Z,2.97
2023-03-12T07:19:05.547Z,2.70
2023-03-12T07:22:07.063Z,2.40
2023-03-12T07:25:09.759Z,1.33
2023-03-12T07:28:12.329Z,5.38
2023-03-12T07:31:13.864Z,3.33
2023-03-12T07:34:15.546Z,1.23
2023-03-12T07:37:17.200Z,3.47
2023-03-12T07:40:18.829Z,3.13
2023-03-12T07:43:21.243Z,2.45
2023-03-12T07:46:24.237Z,2.28
2023-03-12T07:49:27.480Z,4.15
2023-03-12T07:52:29.005Z,2.35
2023-03-12T07:55:31.504Z,4.93
2023-03-12T07:58:36.210Z,2.15
2023-03-12T08:01:37.883Z,1.58
2023-03-12T08:04:39.595Z,2.97
2023-03-12T08:07:41.219Z,2.97
2023-03-12T08:10:42.958Z,3.72
2023-03-12T08:13:44.577Z,2.70
2023-03-12T08:16:46.726Z,4.68
2023-03-12T08:19:48.640Z,2.83
2023-03-12T08:22:50.629Z,2.67
2023-03-12T08:25:53.321Z,2.13
2023-03-12T08:28:54.767Z,3.50
2023-03-12T08:32:04.689Z,4.60
2023-03-12T08:35:06.975Z,3.90
2023-03-12T08:38:08.629Z,5.57
2023-03-12T08:41:10.350Z,6.72
2023-03-12T08:44:11.810Z,6.85
2023-03-12T08:47:13.298Z,4.50
2023-03-12T08:50:16.965Z,5.53
2023-03-12T08:53:18.723Z,7.15
2023-03-12T08:56:20.258Z,6.72
2023-03-12T08:59:22.327Z,5.30
2023-03-12T09:02:24.094Z,5.38
2023-03-12T09:05:28.037Z,6.15
2023-03-12T09:08:29.548Z,7.38
2023-03-12T09:11:32.876Z,6.93
2023-03-12T09:15:02.118Z,6.90
2023-03-12T09:17:55.999Z,7.75
2023-03-12T09:20:57.698Z,5.57
2023-03-12T09:23:59.439Z,7.30
2023-03-12T09:27:01.768Z,8.30
2023-03-12T09:30:03.688Z,7.82
2023-03-12T09:33:05.435Z,6.82
2023-03-12T09:36:07.126Z,6.20
2023-03-12T09:39:08.724Z,10.98
2023-03-12T09:42:37.061Z,5.60
2023-03-12T09:45:43.329Z,6.18
2023-03-12T09:48:47.636Z,6.10
2023-03-12T09:51:54.034Z,7.05
2023-03-12T09:55:17.381Z,4.63
2023-03-12T09:58:33.806Z,6.05
2023-03-12T10:01:37.514Z,4.68
2023-03-12T10:04:58.500Z,6.38
2023-03-12T10:08:23.505Z,14.07
2023-03-12T10:11:28.872Z,4.43
2023-03-12T10:14:42.310Z,4.38
2023-03-12T10:17:43.751Z,5.47
2023-03-12T10:21:17.603Z,5.28
2023-03-12T10:24:40.690Z,8.93
2023-03-12T10:27:42.984Z,6.32
2023-03-12T10:30:55.124Z,6.00
2023-03-12T10:33:59.560Z,5.32
2023-03-12T10:37:11.499Z,4.22
2023-03-12T10:40:16.605Z,5.75
2023-03-12T10:43:18.097Z,4.15
2023-03-12T10:46:37.628Z,7.38
2023-03-12T10:49:39.267Z,6.20
2023-03-12T10:52:41.470Z,4.35
2023-03-12T10:55:43.001Z,4.65
2023-03-12T10:58:49.762Z,6.35
2023-03-12T11:01:52.469Z,6.28
2023-03-12T11:04:54.037Z,5.47
2023-03-12T11:07:56.917Z,5.78
2023-03-12T11:11:00.422Z,4.93
2023-03-12T11:14:24.513Z,3.72
2023-03-12T11:17:28.700Z,5.07
2023-03-12T11:20:30.586Z,4.53
2023-03-12T11:23:32.166Z,3.70
2023-03-12T11:26:57.159Z,4.82
2023-03-12T11:30:00.203Z,4.57
2023-03-12T11:33:02.173Z,4.22
2023-03-12T11:36:23.876Z,4.20
2023-03-12T11:39:40.653Z,3.90
2023-03-12T11:42:57.171Z,3.67
2023-03-12T11:45:58.579Z,4.88
2023-03-12T11:49:39.310Z,5.35
2023-03-12T11:53:03.263Z,3.28
2023-03-12T11:56:19.664Z,3.65
2023-03-12T11:59:30.005Z,4.38
2023-03-12T12:02:44.046Z,3.95
2023-03-12T12:06:23.371Z,2.97
2023-03-12T12:09:49.040Z,5.10
2023-03-12T12:13:24.145Z,3.17
2023-03-12T12:16:34.202Z,4.32
2023-03-12T12:19:58.944Z,5.30
2023-03-12T12:23:03.148Z,3.80
2023-03-12T12:26:18.753Z,3.00
2023-03-12T12:29:50.043Z,4.97
2023-03-12T12:33:22.598Z,5.32
2023-03-12T12:36:27.278Z,8.10
2023-03-12T12:39:32.454Z,7.55
2023-03-12T12:42:39.903Z,5.30
2023-03-12T12:45:44.027Z,9.18
2023-03-12T12:49:09.928Z,8.57
2023-03-12T12:52:20.046Z,5.13
2023-03-12T12:55:32.825Z,6.20
2023-03-12T12:58:46.147Z,6.90
2023-03-12T13:01:48.466Z,5.45
2023-03-12T13:04:50.675Z,4.30
2023-03-12T13:07:52.755Z,4.72
2023-03-12T13:11:02.137Z,5.40
2023-03-12T13:14:10.642Z,8.32
2023-03-12T13:17:35.496Z,5.72
2023-03-12T13:21:06.745Z,6.25
2023-03-12T13:24:29.568Z,4.35
2023-03-12T13:27:39.806Z,5.93
2023-03-12T13:30:41.403Z,7.22
2023-03-12T13:33:48.113Z,8.88
2023-03-12T13:36:59.281Z,4.80
2023-03-12T13:40:02.033Z,4.35
2023-03-12T13:43:09.757Z,5.13
2023-03-12T13:46:39.190Z,4.53
2023-03-12T13:49:58.593Z,4.72
2023-03-12T13:53:16.704Z,3.45
2023-03-12T13:56:20.444Z,3.63
2023-03-12T13:59:24.706Z,4.88
2023-03-12T14:02:43.015Z,5.85
2023-03-12T14:05:50.859Z,6.60
2023-03-12T14:09:26.544Z,4.32
2023-03-12T14:12:36.403Z,4.20
2023-03-12T14:15:58.606Z,4.47
2023-03-12T14:19:02.090Z,3.83
2023-03-12T14:22:07.395Z,3.55
2023-03-12T14:25:31.177Z,4.85
2023-03-12T14:28:40.513Z,5.47
2023-03-12T14:31:42.693Z,5.72
2023-03-12T14:35:16.520Z,3.35
2023-03-12T14:38:23.107Z,6.40
2023-03-12T14:44:32.523Z,3.63
2023-03-12T14:47:45.036Z,3.25
2023-03-12T14:50:48.578Z,6.03
2023-03-12T14:53:50.802Z,6.03
2023-03-12T14:56:52.585Z,3.80
2023-03-12T15:00:01.043Z,3.38
2023-03-12T15:03:07.660Z,2.97
2023-03-12T15:06:24.062Z,2.58
2023-03-12T15:09:28.111Z,3.88
2023-03-12T15:12:34.953Z,4.05
2023-03-12T15:15:41.602Z,6.15
2023-03-12T15:18:43.487Z,3.47
2023-03-12T15:21:45.373Z,4.35
2023-03-12T15:24:47.728Z,4.22
2023-03-12T15:27:59.888Z,2.95
2023-03-12T15:31:12.539Z,3.17
2023-03-12T15:34:32.206Z,3.30
2023-03-12T15:37:38.610Z,3.40
2023-03-12T15:40:40.240Z,2.22
2023-03-12T15:43:45.398Z,3.83
2023-03-12T15:46:56.868Z,4.72
2023-03-12T15:50:10.070Z,4.38
2023-03-12T15:53:11.631Z,3.72
2023-03-12T15:56:13.241Z,3.65
2023-03-12T15:59:24.181Z,3.03
2023-03-12T16:02:37.433Z,3.03
2023-03-12T16:05:40.047Z,2.67
2023-03-12T16:08:44.391Z,3.17
2023-03-12T16:11:46.471Z,2.38
2023-03-12T16:14:48.873Z,4.10
2023-03-12T16:17:50.352Z,3.40
2023-03-12T16:20:53.199Z,1.50
2023-03-12T16:23:54.662Z,1.85
2023-03-12T16:27:00.008Z,3.05
2023-03-12T16:30:01.531Z,2.83
2023-03-12T16:33:08.773Z,4.20
2023-03-12T16:36:16.559Z,2.88
2023-03-12T16:39:19.000Z,2.42
2023-03-12T16:42:21.109Z,3.03
2023-03-12T16:45:22.805Z,4.63
2023-03-12T16:48:24.726Z,3.03
2023-03-12T16:51:28.361Z,3.20
2023-03-12T16:54:29.845Z,3.33
2023-03-12T16:57:39.685Z,3.70
2023-03-12T17:00:41.457Z,2.05
2023-03-12T17:03:45.482Z,2.55
2023-03-12T17:06:47.024Z,6.25
2023-03-12T17:09:48.571Z,5.68
2023-03-12T17:12:50.677Z,6.85
2023-03-12T17:15:52.851Z,3.72
2023-03-12T17:18:54.644Z,4.65
2023-03-12T17:21:56.427Z,4.60
2023-03-12T17:24:57.926Z,7.10
2023-03-12T17:28:00.309Z,5.30
2023-03-12T17:31:02.039Z,6.75
2023-03-12T17:34:04.465Z,2.45
2023-03-12T17:37:05.948Z,3.70
2023-03-12T17:40:09.578Z,3.63
2023-03-12T17:43:11.147Z,3.80
2023-03-12T17:46:12.705Z,3.58
2023-03-12T17:49:14.171Z,5.40
2023-03-12T17:52:15.759Z,4.05
2023-03-12T17:55:17.445Z,4.30
2023-03-12T17:58:18.938Z,3.70
2023-03-12T18:01:20.487Z,4.95
2023-03-12T18:04:21.963Z,2.63
2023-03-12T18:07:23.544Z,4.43
2023-03-12T18:10:25.042Z,4.88
2023-03-12T18:13:26.544Z,3.35
2023-03-12T18:16:28.158Z,2.85
2023-03-12T18:19:30.542Z,2.65
2023-03-12T18:22:32.095Z,3.15
2023-03-12T18:25:33.910Z,3.85
2023-03-12T18:28:35.387Z,1.65
2023-03-12T18:31:36.926Z,2.50
2023-03-12T18:34:42.076Z,4.97
2023-03-12T18:37:44.178Z,3.92
2023-03-12T18:40:45.633Z,4.95
2023-03-12T18:43:47.127Z,4.15
2023-03-12T18:46:50.776Z,4.65
2023-03-12T18:49:54.980Z,6.03
2023-03-12T18:52:56.561Z,4.50
2023-03-12T18:55:58.681Z,7.40
2023-03-12T18:59:00.208Z,7.00
2023-03-12T19:02:03.933Z,5.82
2023-03-12T19:05:06.530Z,6.43
2023-03-12T19:08:08.020Z,4.78
2023-03-12T19:11:12.088Z,7.25
2023-03-12T19:14:14.200Z,6.93
2023-03-12T19:17:15.998Z,5.22
2023-03-12T19:20:17.979Z,7.40
2023-03-12T19:23:19.544Z,6.22
2023-03-12T19:26:21.047Z,5.43
2023-03-12T19:29:22.597Z,7.35
2023-03-12T19:32:27.763Z,3.95
2023-03-12T19:35:38.746Z,7.43
2023-03-12T19:38:40.570Z,5.27
2023-03-12T19:41:42.266Z,4.28
2023-03-12T19:44:43.746Z,6.80
2023-03-12T19:47:45.266Z,4.18
2023-03-12T19:50:46.774Z,4.88
2023-03-12T19:53:48.259Z,9.02
2023-03-12T19:56:49.817Z,4.43
2023-03-12T19:59:51.398Z,4.63
2023-03-12T20:02:53.051Z,3.33
2023-03-12T20:05:54.877Z,4.32
2023-03-12T20:08:56.389Z,4.20
2023-03-12T20:11:57.963Z,5.00
2023-03-12T20:14:59.445Z,5.57
2023-03-12T20:18:00.977Z,5.90
2023-03-12T20:21:02.580Z,6.28
2023-03-12T20:24:05.046Z,5.55
2023-03-12T20:27:06.712Z,4.25
2023-03-12T20:30:09.221Z,3.90
2023-03-12T20:33:10.734Z,3.63
2023-03-12T20:36:13.991Z,4.55
2023-03-12T20:39:15.541Z,5.07
2023-03-12T20:42:17.011Z,4.13
2023-03-12T20:45:18.497Z,2.65
2023-03-12T20:48:19.957Z,5.65
2023-03-12T20:51:21.439Z,4.20
2023-03-12T20:54:23.030Z,5.05
2023-03-12T20:57:24.619Z,3.65
2023-03-12T21:00:26.185Z,3.63
2023-03-12T21:03:27.744Z,3.20
2023-03-12T21:06:29.758Z,4.35
2023-03-12T21:09:31.302Z,4.75
2023-03-12T21:12:32.777Z,3.10
2023-03-12T21:15:34.263Z,3.97
2023-03-12T21:18:35.794Z,2.88
2023-03-12T21:21:38.002Z,4.72
2023-03-12T21:24:39.530Z,2.88
2023-03-12T21:27:49.848Z,3.90
2023-03-12T21:30:52.377Z,3.55
2023-03-12T21:33:57.859Z,4.25
2023-03-12T21:36:59.450Z,3.00
2023-03-12T21:40:01.461Z,5.07
2023-03-12T21:43:03.983Z,2.70
2023-03-12T21:46:11.093Z,4.72
2023-03-12T21:49:13.963Z,3.15
2023-03-12T21:52:15.567Z,4.80
2023-03-12T21:55:17.535Z,3.05
2023-03-12T21:58:18.994Z,3.80
2023-03-12T22:01:20.539Z,3.55
2023-03-12T22:04:22.542Z,3.65
2023-03-12T22:07:24.174Z,4.88
2023-03-12T22:10:25.720Z,3.78
2023-03-12T22:13:27.285Z,4.80
2023-03-12T22:16:28.955Z,3.45
2023-03-12T22:19:30.472Z,3.42
2023-03-12T22:22:33.430Z,3.25
2023-03-12T22:25:35.058Z,2.90
2023-03-12T22:28:36.628Z,3.83
2023-03-12T22:31:38.388Z,3.00
2023-03-12T22:34:39.968Z,3.97
2023-03-12T22:37:44.818Z,5.38
2023-03-12T22:40:46.549Z,3.88
2023-03-12T22:43:49.994Z,3.80
2023-03-12T22:46:52.044Z,3.00
2023-03-12T22:49:53.551Z,4.65
2023-03-12T22:52:55.019Z,2.45
2023-03-12T22:56:07.614Z,4.68
2023-03-12T22:59:09.096Z,3.47
2023-03-12T23:02:10.657Z,2.28
2023-03-12T23:05:12.227Z,3.38
2023-03-12T23:08:13.718Z,3.10
2023-03-12T23:11:16.132Z,4.35
2023-03-12T23:14:18.038Z,2.75
2023-03-12T23:17:19.590Z,4.30
2023-03-12T23:20:23.634Z,2.70
2023-03-12T23:23:26.083Z,3.33
2023-03-12T23:26:29.065Z,2.50
2023-03-12T23:29:31.238Z,3.55
2023-03-12T23:32:34.396Z,4.00
2023-03-12T23:35:36.026Z,4.93
2023-03-12T23:38:37.832Z,2.60
2023-03-12T23:41:39.723Z,4.85
2023-03-12T23:44:41.265Z,4.80
2023-03-12T23:47:42.775Z,2.75
2023-03-12T23:50:44.231Z,2.80
2023-03-12T23:53:47.922Z,2.88
2023-03-12T23:56:49.412Z,3.13
2023-03-12T23:59:50.928Z,3.22
